Portland, Oregon
Traffic Map
Current Weather Conditions
Portland, Oregon
Clear
Clear
70°
Feels Like: 70°
Wind Chill: 70° Ceiling: Unl
Heat Index: 70° Visibility: 10mi
Dew Point: 54° Wind: 5mph
Humidity: 57% Direction: 340° (NNW)
Pressure: 29.88in Gusts: 0mph
Raw Report DataKPDX 040653Z 34004KT 10SM CLR 21/12 A2988 RMK AO2 SLP115 T02110122
Traffic Incident Summary
Active as of:
Severity:
Category:
InformationThere was an issue retrieving the traffic information for this location. Please try a different location or try again shortly.
Advertisements
Track Severe Weather on mobile